Main page
METAR-TAF:

METAR-TAF

Airports :

Cascais Municipal Aerodrome

Cascais, Portugal

latitude: 38-43-32N, longitude: 009-21-19W, elevation: 99 m

Current weather observation

The report was made 10 hours and 10 minutes ago, at 20:00 UTC
Wind 20 kt from the North
Temperature 15°C
Humidity 77%
Pressure 1016 hPa
Visibility 10 km or more
Few clouds at a height of 1800 ft

METAR: LPCS 232000Z 35020KT 9999 FEW018 15/11 Q1016

Time: 07:10 (06:10 UTC)

Forecast

The report was made 16 hours and 10 minutes ago, at 14:00 UTC
Forecast valid from 23 at 15 UTC to 23 at 24 UTC
Wind 17 kt from the North
Visibility 10 km or more
Few clouds at a height of 2000 ft
Probability 30% :
Temporary
from 23 at 15 UTC to 23 at 22 UTC
Wind 18 kt from the North with gusts up to 30 kt

TAF: LPCS 231400Z 2315/2324 35017KT 9999 FEW020 PROB30 TEMPO 2315/2322 35018G30KT

Weather observations and forecasts of more than 4000 airports (METAR and TAF reports).

The available stations are represented by yellow and red dots on the map.

Hover mouse over dot to see the name of the station.

Then click to see weather observations and forecasts.

To change the map : click on the green buttons with a black cross to zoom in, on the green button with a dash to zoom out, or on the green arrows for adjacent maps.


METAR-TAF: